Time;durP1;ratioP1;P1;durP2;ratioP2;P2;SDS_P1;SDS_P2;PMS_P1;PMS_P2;Temp;Humidity;BMP_temperature;BMP_pressure;BME280_temperature;BME280_humidity;BME280_pressure;Samples;Min_cycle;Max_cycle;Signal;HPM_P1;HPM_P2
2023/04/13 00:01:16;;;;;;;1.5;0.8;;;;;;;;;;;;;-73
2023/04/13 00:03:29;;;;;;;;;;;;;;;7.06;81.37988;99288.08;;;;-73
2023/04/13 00:08:29;;;;;;;;;;;;;;;7.06;81.54199;99282.73;;;;-73
2023/04/13 00:13:30;;;;;;;;;;;;;;;7.05;81.94629;99285.05;;;;-73
2023/04/13 00:18:30;;;;;;;;;;;;;;;7.04;81.35254;99284.33;;;;-73
2023/04/13 00:23:32;;;;;;;;;;;;;;;7.03;82.58105;99286.98;;;;-74
2023/04/13 00:28:28;;;;;;;;;;;;;;;7.06;82.34277;99278.05;;;;-73
2023/04/13 00:31:17;;;;;;;3.6;0.9;;;;;;;;;;;;;-73
2023/04/13 00:33:28;;;;;;;;;;;;;;;7.04;83.00879;99280.78;;;;-72
2023/04/13 00:38:28;;;;;;;;;;;;;;;7.03;83.19336;99279.38;;;;-71
2023/04/13 00:43:28;;;;;;;;;;;;;;;7.04;82.24121;99279.8;;;;-73
2023/04/13 00:48:28;;;;;;;;;;;;;;;7.05;83.24121;99284.88;;;;-73
2023/04/13 00:53:28;;;;;;;;;;;;;;;7.04;83.07422;99280.06;;;;-73
2023/04/13 00:58:28;;;;;;;;;;;;;;;7.03;83.96094;99292.8;;;;-73
2023/04/13 01:01:18;;;;;;;2.3;1;;;;;;;;;;;;;-73
2023/04/13 01:03:28;;;;;;;;;;;;;;;7.05;82.95605;99315.07;;;;-73
2023/04/13 01:08:33;;;;;;;;;;;;;;;7.05;83.94238;99310.08;;;;-73
2023/04/13 01:13:33;;;;;;;;;;;;;;;7.03;84.02637;99321.35;;;;-74
2023/04/13 01:18:30;;;;;;;;;;;;;;;7.01;84.1748;99324.75;;;;-72
2023/04/13 01:23:33;;;;;;;;;;;;;;;7;84.83008;99327.88;;;;-74
2023/04/13 01:28:29;;;;;;;;;;;;;;;6.97;84.60645;99335.97;;;;-73
2023/04/13 01:31:19;;;;;;;2.3;1;;;;;;;;;;;;;-73
2023/04/13 01:33:29;;;;;;;;;;;;;;;6.98;84.85938;99344.63;;;;-74
2023/04/13 01:38:30;;;;;;;;;;;;;;;6.95;84.72266;99344.88;;;;-74
2023/04/13 01:43:28;;;;;;;;;;;;;;;6.97;83.54297;99349.52;;;;-73
2023/04/13 01:48:31;;;;;;;;;;;;;;;6.94;83.85547;99355.25;;;;-73
2023/04/13 01:53:31;;;;;;;;;;;;;;;6.96;83.63086;99357.14;;;;-73
2023/04/13 01:58:32;;;;;;;;;;;;;;;6.92;84.10352;99359.79;;;;-73
2023/04/13 02:01:19;;;;;;;1.9;0.9;;;;;;;;;;;;;-73
2023/04/13 02:03:29;;;;;;;;;;;;;;;6.88;84.18262;99364.88;;;;-74
2023/04/13 02:08:28;;;;;;;;;;;;;;;6.86;84.2998;99373.78;;;;-72
2023/04/13 02:13:28;;;;;;;;;;;;;;;6.84;83.84668;99375.86;;;;-73
2023/04/13 02:18:28;;;;;;;;;;;;;;;6.79;83.99121;99384.91;;;;-72
2023/04/13 02:23:28;;;;;;;;;;;;;;;6.71;83.53809;99397.33;;;;-73
2023/04/13 02:28:28;;;;;;;;;;;;;;;6.68;83.81543;99398.13;;;;-72
2023/04/13 02:31:22;;;;;;;2.3;0.8;;;;;;;;;;;;;-73
2023/04/13 02:33:30;;;;;;;;;;;;;;;6.64;83.48145;99403.27;;;;-74
2023/04/13 02:38:28;;;;;;;;;;;;;;;6.58;84.44434;99405.83;;;;-73
2023/04/13 02:43:28;;;;;;;;;;;;;;;6.5;83.6377;99409.92;;;;-73
2023/04/13 02:48:28;;;;;;;;;;;;;;;6.41;84.41211;99415.38;;;;-73
2023/04/13 02:53:28;;;;;;;;;;;;;;;6.32;84.44727;99418.36;;;;-73
2023/04/13 02:58:31;;;;;;;;;;;;;;;6.3;83.85254;99419.65;;;;-73
2023/04/13 03:01:23;;;;;;;1.8;0.7;;;;;;;;;;;;;-72
2023/04/13 03:08:29;;;;;;;;;;;;;;;6.19;83.51465;99437.35;;;;-72
2023/04/13 03:13:38;;;;;;;;;;;;;;;6.16;84.47168;99444.3;;;;-72
2023/04/13 03:18:40;;;;;;;;;;;;;;;6.08;83.85254;99454.52;;;;-73
2023/04/13 03:23:28;;;;;;;;;;;;;;;6.03;84.70605;99462.3;;;;-72
2023/04/13 03:28:28;;;;;;;;;;;;;;;6.02;84.34473;99475.14;;;;-73
2023/04/13 03:31:24;;;;;;;4.4;0.6;;;;;;;;;;;;;-72
2023/04/13 03:33:28;;;;;;;;;;;;;;;6.01;85.17383;99476.91;;;;-71
2023/04/13 03:38:28;;;;;;;;;;;;;;;5.99;84.0752;99480.62;;;;-73
2023/04/13 03:43:28;;;;;;;;;;;;;;;5.98;84.9043;99482.36;;;;-72
2023/04/13 03:48:28;;;;;;;;;;;;;;;6;84.3418;99485.17;;;;-72
2023/04/13 03:53:28;;;;;;;;;;;;;;;6.05;83.8252;99480.97;;;;-72
2023/04/13 03:58:29;;;;;;;;;;;;;;;6.05;85.01758;99492.59;;;;-72
2023/04/13 04:01:22;;;;;;;3.9;0.7;;;;;;;;;;;;;-72
2023/04/13 04:03:29;;;;;;;;;;;;;;;6.06;85.33594;99502.36;;;;-72
2023/04/13 04:08:28;;;;;;;;;;;;;;;6.11;85.18262;99496.88;;;;-72
2023/04/13 04:13:29;;;;;;;;;;;;;;;6.12;85.35938;99505.86;;;;-73
2023/04/13 04:18:29;;;;;;;;;;;;;;;6.13;85.58203;99520.38;;;;-73
2023/04/13 04:23:33;;;;;;;;;;;;;;;6.17;86.3877;99524.37;;;;-73
2023/04/13 04:28:39;;;;;;;;;;;;;;;6.19;86.79492;99526.13;;;;-74
2023/04/13 04:31:23;;;;;;;6.8;1.4;;;;;;;;;;;;;-73
2023/04/13 04:33:27;;;;;;;;;;;;;;;6.21;87.125;99537.34;;;;-72
2023/04/13 04:38:29;;;;;;;;;;;;;;;6.24;87.47168;99538.58;;;;-72
2023/04/13 04:43:29;;;;;;;;;;;;;;;6.25;87.32031;99547.69;;;;-71
2023/04/13 04:48:30;;;;;;;;;;;;;;;6.26;87.32422;99565.42;;;;-72
2023/04/13 04:53:35;;;;;;;;;;;;;;;6.25;87.61523;99563.69;;;;-73
2023/04/13 04:58:28;;;;;;;;;;;;;;;6.2;86.91699;99566.64;;;;-72
2023/04/13 05:01:25;;;;;;;3.6;1.1;;;;;;;;;;;;;-72
2023/04/13 05:03:28;;;;;;;;;;;;;;;6.18;86.41113;99568.88;;;;-72
2023/04/13 05:08:28;;;;;;;;;;;;;;;6.15;86.85352;99577.06;;;;-72
2023/04/13 05:13:30;;;;;;;;;;;;;;;6.15;86.53516;99575.59;;;;-72
2023/04/13 05:18:28;;;;;;;;;;;;;;;6.16;86.08887;99584.96;;;;-72
2023/04/13 05:23:28;;;;;;;;;;;;;;;6.17;86.34375;99591.35;;;;-73
2023/04/13 05:28:28;;;;;;;;;;;;;;;6.18;86.55273;99598.53;;;;-72
2023/04/13 05:31:24;;;;;;;3.1;1.1;;;;;;;;;;;;;-72
2023/04/13 05:33:28;;;;;;;;;;;;;;;6.19;87.08008;99600.53;;;;-73
2023/04/13 05:38:27;;;;;;;;;;;;;;;6.18;86.34375;99606.23;;;;-72
2023/04/13 05:43:28;;;;;;;;;;;;;;;6.21;87.00488;99609.45;;;;-73
2023/04/13 05:48:28;;;;;;;;;;;;;;;6.27;86.98633;99615.14;;;;-72
2023/04/13 05:53:28;;;;;;;;;;;;;;;6.4;88.12793;99633.89;;;;-73
2023/04/13 05:58:30;;;;;;;;;;;;;;;6.46;87.85645;99646.34;;;;-72
2023/04/13 06:01:27;;;;;;;4.7;0.8;;;;;;;;;;;;;-73
2023/04/13 06:03:28;;;;;;;;;;;;;;;6.48;88.33887;99651.13;;;;-72
2023/04/13 06:08:31;;;;;;;;;;;;;;;6.49;89.00977;99648.25;;;;-72
2023/04/13 06:13:28;;;;;;;;;;;;;;;6.58;88.35938;99661.03;;;;-74
2023/04/13 06:18:28;;;;;;;;;;;;;;;6.72;89.06738;99667.63;;;;-73
2023/04/13 06:23:31;;;;;;;;;;;;;;;6.82;89.21875;99673.33;;;;-71
2023/04/13 06:28:29;;;;;;;;;;;;;;;6.86;88.78027;99673.32;;;;-72
2023/04/13 06:31:26;;;;;;;3;0.5;;;;;;;;;;;;;-72
2023/04/13 06:33:28;;;;;;;;;;;;;;;6.95;89.61914;99684.66;;;;-72
2023/04/13 06:38:33;;;;;;;;;;;;;;;7.02;89.08496;99689.23;;;;-72
2023/04/13 06:43:32;;;;;;;;;;;;;;;7.07;89.40137;99713.15;;;;-73
2023/04/13 06:48:28;;;;;;;;;;;;;;;7.05;89.45215;99713.32;;;;-73
2023/04/13 06:53:29;;;;;;;;;;;;;;;7.22;91.12988;99705.34;;;;-73
2023/04/13 06:58:29;;;;;;;;;;;;;;;7.55;90.41113;99715.89;;;;-72
2023/04/13 07:01:28;;;;;;;1.9;0.7;;;;;;;;;;;;;-72
2023/04/13 07:03:35;;;;;;;;;;;;;;;7.66;89.64551;99719.53;;;;-72
2023/04/13 07:08:27;;;;;;;;;;;;;;;7.63;89.8125;99736.1;;;;-71
2023/04/13 07:13:28;;;;;;;;;;;;;;;7.62;89.94238;99735.48;;;;-73
2023/04/13 07:18:27;;;;;;;;;;;;;;;7.68;89.77832;99739.53;;;;-72
2023/04/13 07:23:28;;;;;;;;;;;;;;;7.91;89.23535;99734.49;;;;-74
2023/04/13 07:28:28;;;;;;;;;;;;;;;8.11;88.6377;99752.44;;;;-72
2023/04/13 07:31:28;;;;;;;5.5;1;;;;;;;;;;;;;-73
2023/04/13 07:33:28;;;;;;;;;;;;;;;8.1;88.27344;99790.58;;;;-73
2023/04/13 07:38:28;;;;;;;;;;;;;;;7.97;87.97363;99775.25;;;;-73
2023/04/13 07:43:28;;;;;;;;;;;;;;;7.87;87.39355;99784.17;;;;-73
2023/04/13 07:48:28;;;;;;;;;;;;;;;7.81;87.31543;99785.12;;;;-72
2023/04/13 07:53:27;;;;;;;;;;;;;;;7.81;87.18555;99798.72;;;;-73
2023/04/13 07:58:27;;;;;;;;;;;;;;;7.93;88.66992;99809.32;;;;-73
2023/04/13 08:01:28;;;;;;;7.1;1.2;;;;;;;;;;;;;-74
2023/04/13 08:03:28;;;;;;;;;;;;;;;8.04;89.10742;99814.89;;;;-73
2023/04/13 08:08:32;;;;;;;;;;;;;;;8.18;89.51074;99830.97;;;;-73
2023/04/13 08:13:28;;;;;;;;;;;;;;;8.23;89.29102;99843.55;;;;-73
2023/04/13 08:18:28;;;;;;;;;;;;;;;8.32;88.70215;99846.1;;;;-73
2023/04/13 08:23:28;;;;;;;;;;;;;;;8.36;88.42773;99860.02;;;;-73
2023/04/13 08:28:29;;;;;;;;;;;;;;;8.43;87.66113;99878.15;;;;-72
2023/04/13 08:31:30;;;;;;;11;1.6;;;;;;;;;;;;;-71
2023/04/13 08:33:28;;;;;;;;;;;;;;;8.44;87.34473;99866.7;;;;-72
2023/04/13 08:38:28;;;;;;;;;;;;;;;8.39;86.87402;99907.8;;;;-72
2023/04/13 08:43:28;;;;;;;;;;;;;;;8.35;86.25879;99910.62;;;;-73
2023/04/13 08:48:28;;;;;;;;;;;;;;;8.36;86.27344;99921.23;;;;-72
2023/04/13 08:53:28;;;;;;;;;;;;;;;8.34;86.1709;99939.56;;;;-72
2023/04/13 08:58:28;;;;;;;;;;;;;;;8.37;85.84668;99943.11;;;;-72
2023/04/13 09:01:31;;;;;;;14.6;1.8;;;;;;;;;;;;;-72
2023/04/13 09:03:32;;;;;;;;;;;;;;;8.39;85.70703;99962.23;;;;-72
2023/04/13 09:08:34;;;;;;;;;;;;;;;8.43;85.25391;99972.13;;;;-71
2023/04/13 09:13:29;;;;;;;;;;;;;;;8.46;84.97363;99973.89;;;;-73
2023/04/13 09:18:27;;;;;;;;;;;;;;;8.53;84.40527;99992.03;;;;-73
2023/04/13 09:23:28;;;;;;;;;;;;;;;8.59;83.87695;99997.63;;;;-73
2023/04/13 09:28:27;;;;;;;;;;;;;;;8.76;83.84375;100011.3;;;;-71
2023/04/13 09:31:31;;;;;;;11.6;1.9;;;;;;;;;;;;;-72
2023/04/13 09:33:28;;;;;;;;;;;;;;;9.01;82.79102;100003.1;;;;-73
2023/04/13 09:38:32;;;;;;;;;;;;;;;9.17;82.24805;100020.8;;;;-72
2023/04/13 09:43:36;;;;;;;;;;;;;;;9.37;81.46973;100029.5;;;;-73
2023/04/13 09:48:29;;;;;;;;;;;;;;;9.43;80.92773;100039.6;;;;-72
2023/04/13 09:53:28;;;;;;;;;;;;;;;9.62;;100040.4;;;;-73
2023/04/13 09:58:36;;;;;;;;;;;;;;;9.89;79.91992;100052.2;;;;-73
2023/04/13 10:01:32;;;;;;;8.3;1.4;;;;;;;;;;;;;-71
2023/04/13 10:03:28;;;;;;;;;;;;;;;10.2;78.7168;100040.2;;;;-72
2023/04/13 10:08:32;;;;;;;;;;;;;;;10.44;78.02832;100061.7;;;;-72
2023/04/13 10:13:31;;;;;;;;;;;;;;;10.79;77.84766;100075.6;;;;-73
2023/04/13 10:18:33;;;;;;;;;;;;;;;10.95;75.7041;100072.3;;;;-73
2023/04/13 10:23:28;;;;;;;;;;;;;;;11.03;75.15137;100075.8;;;;-72
2023/04/13 10:28:28;;;;;;;;;;;;;;;11.29;74.67676;100095;;;;-73
2023/04/13 10:31:41;;;;;;;8.4;1.4;;;;;;;;;;;;;-72
2023/04/13 10:33:30;;;;;;;;;;;;;;;11.51;74.86621;100118.3;;;;-72
2023/04/13 10:38:28;;;;;;;;;;;;;;;11.49;73.4873;100125.8;;;;-72
2023/04/13 10:43:34;;;;;;;;;;;;;;;11.45;72.00293;100140.7;;;;-73
2023/04/13 10:48:27;;;;;;;;;;;;;;;11.53;71.24805;100157.2;;;;-71
2023/04/13 10:53:32;;;;;;;;;;;;;;;11.53;70.8916;100162.6;;;;-72
2023/04/13 10:58:30;;;;;;;;;;;;;;;11.52;71.45703;100174.7;;;;-73
2023/04/13 11:01:35;;;;;;;7.2;1.2;;;;;;;;;;;;;-73
2023/04/13 11:03:29;;;;;;;;;;;;;;;11.66;70.64551;100178.6;;;;-72
2023/04/13 11:08:29;;;;;;;;;;;;;;;11.69;70.87402;100182.9;;;;-73
2023/04/13 11:13:28;;;;;;;;;;;;;;;11.64;70.7998;100205.2;;;;-73
2023/04/13 11:18:31;;;;;;;;;;;;;;;11.42;71.03125;100213.9;;;;-73
2023/04/13 11:23:28;;;;;;;;;;;;;;;11.47;71.53906;100213.4;;;;-72
2023/04/13 11:28:29;;;;;;;;;;;;;;;11.46;71.39258;100227.6;;;;-73
2023/04/13 11:31:42;;;;;;;8;1.4;;;;;;;;;;;;;-74
2023/04/13 11:33:32;;;;;;;;;;;;;;;11.47;71.29492;100240.2;;;;-72
2023/04/13 11:38:27;;;;;;;;;;;;;;;11.48;70.91797;100242.8;;;;-73
2023/04/13 11:43:28;;;;;;;;;;;;;;;11.62;70.49512;100258.2;;;;-73
2023/04/13 11:48:28;;;;;;;;;;;;;;;11.97;70.51855;100257.8;;;;-74
2023/04/13 11:53:28;;;;;;;;;;;;;;;11.95;69.30176;100264.3;;;;-73
2023/04/13 11:58:28;;;;;;;;;;;;;;;11.93;69.66504;100276.4;;;;-72
2023/04/13 12:01:37;;;;;;;6.9;1.2;;;;;;;;;;;;;-74
2023/04/13 12:03:29;;;;;;;;;;;;;;;11.91;70.38477;100278.8;;;;-74
2023/04/13 12:08:28;;;;;;;;;;;;;;;11.81;69.49219;100284.9;;;;-74
2023/04/13 12:13:27;;;;;;;;;;;;;;;11.92;69.76367;100291;;;;-72
2023/04/13 12:18:36;;;;;;;;;;;;;;;11.91;68.19336;100310;;;;-72
2023/04/13 12:23:27;;;;;;;;;;;;;;;11.9;68.77051;100316.3;;;;-72
2023/04/13 12:28:30;;;;;;;;;;;;;;;12.01;68.59766;100317.6;;;;-73
2023/04/13 12:31:43;;;;;;;5.8;0.9;;;;;;;;;;;;;-73
2023/04/13 12:33:33;;;;;;;;;;;;;;;12.09;68.18555;100320.2;;;;-72
2023/04/13 12:38:40;;;;;;;;;;;;;;;12.07;67.86133;100326.7;;;;-72
2023/04/13 12:43:28;;;;;;;;;;;;;;;12.03;67.6875;100340.1;;;;-73
2023/04/13 12:48:29;;;;;;;;;;;;;;;11.92;67.57129;100349.5;;;;-73
2023/04/13 12:53:28;;;;;;;;;;;;;;;11.65;67.41797;100365.8;;;;-72
2023/04/13 12:58:29;;;;;;;;;;;;;;;11.51;67.58301;100370.1;;;;-73
2023/04/13 13:01:41;;;;;;;7.4;1.2;;;;;;;;;;;;;-73
2023/04/13 13:03:27;;;;;;;;;;;;;;;11.63;69.2959;100375.8;;;;-72
2023/04/13 13:08:33;;;;;;;;;;;;;;;11.52;68.17578;100384.7;;;;-72
2023/04/13 13:13:28;;;;;;;;;;;;;;;11.46;68.33301;100377.3;;;;-73
2023/04/13 13:18:28;;;;;;;;;;;;;;;11.5;68.38477;100388.5;;;;-73
2023/04/13 13:23:27;;;;;;;;;;;;;;;11.64;67.61719;100383.4;;;;-72
2023/04/13 13:28:30;;;;;;;;;;;;;;;11.75;67.41113;100389.5;;;;-72
2023/04/13 13:31:44;;;;;;;7.7;1.1;;;;;;;;;;;;;-72
2023/04/13 13:33:27;;;;;;;;;;;;;;;11.81;67.29688;100402;;;;-73
2023/04/13 13:38:30;;;;;;;;;;;;;;;11.9;67.79004;100418.3;;;;-73
2023/04/13 13:43:28;;;;;;;;;;;;;;;11.79;66.82617;100404.9;;;;-73
2023/04/13 13:48:27;;;;;;;;;;;;;;;11.79;66.72559;100412.5;;;;-73
2023/04/13 13:53:27;;;;;;;;;;;;;;;11.79;67.42773;100433.8;;;;-72
2023/04/13 13:58:28;;;;;;;;;;;;;;;11.79;66.96094;100417.8;;;;-73
2023/04/13 14:01:44;;;;;;;13.1;1.6;;;;;;;;;;;;;-73
2023/04/13 14:03:27;;;;;;;;;;;;;;;11.99;66.13379;100432;;;;-72
2023/04/13 14:08:32;;;;;;;;;;;;;;;12.05;66.85547;100424.3;;;;-72
2023/04/13 14:13:30;;;;;;;;;;;;;;;12.17;67.01855;100434.9;;;;-73
2023/04/13 14:18:27;;;;;;;;;;;;;;;12.25;66.51758;100426.6;;;;-72
2023/04/13 14:23:27;;;;;;;;;;;;;;;12.32;66.5498;100437.4;;;;-72
2023/04/13 14:28:32;;;;;;;;;;;;;;;12.44;67.30371;100438.9;;;;-73
2023/04/13 14:31:46;;;;;;;9.9;1.7;;;;;;;;;;;;;-72
2023/04/13 14:33:28;;;;;;;;;;;;;;;12.68;67.48535;100449.7;;;;-74
2023/04/13 14:38:29;;;;;;;;;;;;;;;12.53;65.23047;100457.2;;;;-72
2023/04/13 14:43:27;;;;;;;;;;;;;;;12.61;65.00879;100472.8;;;;-73
2023/04/13 14:48:30;;;;;;;;;;;;;;;12.53;65.30859;100472.6;;;;-72
2023/04/13 14:53:29;;;;;;;;;;;;;;;12.59;65.58691;100475.1;;;;-72
2023/04/13 14:58:27;;;;;;;;;;;;;;;12.72;66.31055;100482.6;;;;-73
2023/04/13 15:01:56;;;;;;;8;1.5;;;;;;;;;;;;;-72
2023/04/13 15:03:27;;;;;;;;;;;;;;;12.81;64.56738;100486.5;;;;-74
2023/04/13 15:08:28;;;;;;;;;;;;;;;12.79;65.41699;100508.7;;;;-72
2023/04/13 15:13:29;;;;;;;;;;;;;;;12.79;64.13184;100505.9;;;;-72
2023/04/13 15:18:27;;;;;;;;;;;;;;;12.87;65.78516;100499;;;;-73
2023/04/13 15:23:27;;;;;;;;;;;;;;;12.75;63.10645;100498.9;;;;-72
2023/04/13 15:28:27;;;;;;;;;;;;;;;12.88;63.86328;100498.2;;;;-72
2023/04/13 15:31:50;;;;;;;9;1.5;;;;;;;;;;;;;-72
2023/04/13 15:33:27;;;;;;;;;;;;;;;13;64.50781;100489.9;;;;-73
2023/04/13 15:38:28;;;;;;;;;;;;;;;12.83;63.91211;100504.5;;;;-72
2023/04/13 15:43:27;;;;;;;;;;;;;;;12.83;65.52148;100506.9;;;;-72
2023/04/13 15:48:27;;;;;;;;;;;;;;;12.74;65.22852;100516.5;;;;-72
2023/04/13 15:53:27;;;;;;;;;;;;;;;12.73;63.32813;100517.6;;;;-73
2023/04/13 15:58:27;;;;;;;;;;;;;;;12.8;64.63477;100521.3;;;;-72
2023/04/13 16:01:52;;;;;;;9.1;1.4;;;;;;;;;;;;;-73
2023/04/13 16:03:31;;;;;;;;;;;;;;;12.87;66.16504;100524.7;;;;-73
2023/04/13 16:08:27;;;;;;;;;;;;;;;12.71;65.71484;100526.4;;;;-73
2023/04/13 16:13:29;;;;;;;;;;;;;;;12.78;66.03809;100526;;;;-73
2023/04/13 16:18:29;;;;;;;;;;;;;;;12.69;65.13086;100533.2;;;;-72
2023/04/13 16:23:28;;;;;;;;;;;;;;;12.82;66.88281;100529.3;;;;-72
2023/04/13 16:28:28;;;;;;;;;;;;;;;12.84;67.08789;100535.3;;;;-72
2023/04/13 16:31:56;;;;;;;8.7;1.4;;;;;;;;;;;;;-73
2023/04/13 16:33:28;;;;;;;;;;;;;;;12.8;67.29297;100543.7;;;;-72
2023/04/13 16:38:30;;;;;;;;;;;;;;;12.73;66.41113;100554.3;;;;-73
2023/04/13 16:43:28;;;;;;;;;;;;;;;12.67;66.23535;100562.8;;;;-72
2023/04/13 16:48:35;;;;;;;;;;;;;;;12.67;66.72656;100563;;;;-72
2023/04/13 16:53:27;;;;;;;;;;;;;;;12.58;66.05371;100563.6;;;;-72
2023/04/13 16:58:30;;;;;;;;;;;;;;;12.45;65.92188;100565.1;;;;-71
2023/04/13 17:01:57;;;;;;;6;1.6;;;;;;;;;;;;;-71
2023/04/13 17:03:27;;;;;;;;;;;;;;;12.52;65.90039;100570.6;;;;-71
2023/04/13 17:08:28;;;;;;;;;;;;;;;12.4;64.51953;100577.8;;;;-73
2023/04/13 17:13:27;;;;;;;;;;;;;;;12.18;64.62012;100579.9;;;;-72
2023/04/13 17:18:29;;;;;;;;;;;;;;;12.08;65.51074;100581.7;;;;-72
2023/04/13 17:23:28;;;;;;;;;;;;;;;12.01;63.85938;100586.4;;;;-72
2023/04/13 17:28:28;;;;;;;;;;;;;;;11.9;65.1377;100592.8;;;;-72
2023/04/13 17:31:58;;;;;;;9.5;1.4;;;;;;;;;;;;;-71
2023/04/13 17:33:30;;;;;;;;;;;;;;;11.81;65.46973;100594.8;;;;-73
2023/04/13 17:38:29;;;;;;;;;;;;;;;11.69;65.69727;100594.1;;;;-72
2023/04/13 17:43:27;;;;;;;;;;;;;;;11.48;65.6543;100604.5;;;;-73
2023/04/13 17:48:27;;;;;;;;;;;;;;;11.38;66.19629;100608.1;;;;-72
2023/04/13 17:53:27;;;;;;;;;;;;;;;11.16;65.23926;100621.9;;;;-73
2023/04/13 17:58:32;;;;;;;;;;;;;;;10.96;64.86328;100624.8;;;;-71
2023/04/13 18:02:01;;;;;;;6.5;1.6;;;;;;;;;;;;;-71
2023/04/13 18:03:27;;;;;;;;;;;;;;;10.88;65.38672;100633;;;;-71
2023/04/13 18:08:27;;;;;;;;;;;;;;;10.74;66.19922;100636.4;;;;-71
2023/04/13 18:13:28;;;;;;;;;;;;;;;10.62;65.53711;100638.9;;;;-73
2023/04/13 18:18:29;;;;;;;;;;;;;;;10.48;65.72656;100645.6;;;;-71
2023/04/13 18:23:27;;;;;;;;;;;;;;;10.38;66.59961;100661;;;;-72
2023/04/13 18:28:28;;;;;;;;;;;;;;;10.2;66.60645;100662.7;;;;-72
2023/04/13 18:32:02;;;;;;;7.3;2;;;;;;;;;;;;;-74
2023/04/13 18:33:28;;;;;;;;;;;;;;;10.1;66.72461;100668.6;;;;-72
2023/04/13 18:38:27;;;;;;;;;;;;;;;9.96;66.21387;100669.9;;;;-72
2023/04/13 18:43:28;;;;;;;;;;;;;;;9.84;66.75098;100678.9;;;;-72
2023/04/13 18:48:27;;;;;;;;;;;;;;;9.69;67.01563;100682.9;;;;-72
2023/04/13 18:53:27;;;;;;;;;;;;;;;9.56;68.11523;100696.1;;;;-72
2023/04/13 18:58:32;;;;;;;;;;;;;;;9.41;67.8584;100702.1;;;;-73
2023/04/13 19:02:03;;;;;;;7.4;1.4;;;;;;;;;;;;;-72
2023/04/13 19:03:27;;;;;;;;;;;;;;;9.29;67.98535;100713.8;;;;-72
2023/04/13 19:08:28;;;;;;;;;;;;;;;9.13;67.75977;100723.9;;;;-72
2023/04/13 19:13:27;;;;;;;;;;;;;;;9.03;67.96582;100732.6;;;;-72
2023/04/13 19:18:27;;;;;;;;;;;;;;;8.89;68.06543;100736.8;;;;-72
2023/04/13 19:23:29;;;;;;;;;;;;;;;8.8;68.96973;100739.6;;;;-73
2023/04/13 19:28:28;;;;;;;;;;;;;;;8.69;68.77441;100743.7;;;;-72
2023/04/13 19:32:05;;;;;;;6;1.4;;;;;;;;;;;;;-72
2023/04/13 19:33:27;;;;;;;;;;;;;;;8.61;69.16992;100741.4;;;;-72
2023/04/13 19:38:27;;;;;;;;;;;;;;;8.53;69.64453;100755.3;;;;-72
2023/04/13 19:43:27;;;;;;;;;;;;;;;8.4;69.79004;100765.5;;;;-72
2023/04/13 19:48:27;;;;;;;;;;;;;;;8.31;69.875;100769.4;;;;-72
2023/04/13 19:53:27;;;;;;;;;;;;;;;8.21;70.13477;100775.1;;;;-71
2023/04/13 19:58:27;;;;;;;;;;;;;;;8.08;69.99121;100779.1;;;;-72
2023/04/13 20:02:06;;;;;;;5.7;1.2;;;;;;;;;;;;;-71
2023/04/13 20:03:30;;;;;;;;;;;;;;;7.98;70.15332;100782.2;;;;-72
2023/04/13 20:08:28;;;;;;;;;;;;;;;7.92;70.19824;100788.3;;;;-72
2023/04/13 20:13:27;;;;;;;;;;;;;;;7.83;70.58984;100791.8;;;;-72
2023/04/13 20:18:28;;;;;;;;;;;;;;;7.71;70.66016;100795;;;;-72
2023/04/13 20:23:30;;;;;;;;;;;;;;;7.64;70.86914;100806.5;;;;-72
2023/04/13 20:28:27;;;;;;;;;;;;;;;7.56;71.18652;100809.2;;;;-72
2023/04/13 20:32:07;;;;;;;5.7;1.3;;;;;;;;;;;;;-71
2023/04/13 20:33:32;;;;;;;;;;;;;;;7.49;71.08789;100820.3;;;;-71
2023/04/13 20:38:28;;;;;;;;;;;;;;;7.38;71.25684;100819.7;;;;-72
2023/04/13 20:43:28;;;;;;;;;;;;;;;7.32;71.65332;100819.7;;;;-72
2023/04/13 20:48:28;;;;;;;;;;;;;;;7.23;71.55078;100826.9;;;;-72
2023/04/13 20:53:28;;;;;;;;;;;;;;;7.16;72.1123;100828.8;;;;-72
2023/04/13 20:58:27;;;;;;;;;;;;;;;7.1;72.00293;100840.7;;;;-71
2023/04/13 21:02:09;;;;;;;6.6;1.4;;;;;;;;;;;;;-71
2023/04/13 21:03:30;;;;;;;;;;;;;;;7.05;72.22461;100848.7;;;;-71
2023/04/13 21:08:28;;;;;;;;;;;;;;;7;72.48145;100852.5;;;;-72
2023/04/13 21:13:29;;;;;;;;;;;;;;;6.96;72.29785;100853.6;;;;-71
2023/04/13 21:18:28;;;;;;;;;;;;;;;6.91;72.58691;100862.9;;;;-73
2023/04/13 21:23:27;;;;;;;;;;;;;;;6.9;72.57324;100866.2;;;;-71
2023/04/13 21:28:27;;;;;;;;;;;;;;;6.8;72.83203;100869.7;;;;-72
2023/04/13 21:32:09;;;;;;;5.5;1.3;;;;;;;;;;;;;-73
2023/04/13 21:33:27;;;;;;;;;;;;;;;6.76;72.79199;100873.1;;;;-72
2023/04/13 21:38:27;;;;;;;;;;;;;;;6.72;72.67578;100872.3;;;;-71
2023/04/13 21:43:27;;;;;;;;;;;;;;;6.66;72.85156;100874.4;;;;-73
2023/04/13 21:48:27;;;;;;;;;;;;;;;6.63;72.66016;100875.5;;;;-72
2023/04/13 21:53:27;;;;;;;;;;;;;;;6.57;73.00195;100876.1;;;;-72
2023/04/13 21:58:27;;;;;;;;;;;;;;;6.51;72.87109;100875.1;;;;-71
2023/04/13 22:02:11;;;;;;;4.4;1.3;;;;;;;;;;;;;-73
2023/04/13 22:03:27;;;;;;;;;;;;;;;6.46;73.15918;100881.2;;;;-71
2023/04/13 22:08:27;;;;;;;;;;;;;;;6.38;73.71777;100886;;;;-72
2023/04/13 22:13:27;;;;;;;;;;;;;;;6.35;73.26074;100884;;;;-72
2023/04/13 22:18:27;;;;;;;;;;;;;;;6.31;73.05762;100880.4;;;;-72
2023/04/13 22:23:27;;;;;;;;;;;;;;;6.31;73.33203;100877.2;;;;-72
2023/04/13 22:28:33;;;;;;;;;;;;;;;6.24;73.45117;100872.6;;;;-71
2023/04/13 22:32:11;;;;;;;5.7;1.1;;;;;;;;;;;;;-72
2023/04/13 22:33:30;;;;;;;;;;;;;;;6.18;73.33105;100884.9;;;;-71
2023/04/13 22:38:27;;;;;;;;;;;;;;;6.1;73.43848;100884.4;;;;-72
2023/04/13 22:43:27;;;;;;;;;;;;;;;6.08;73.43457;100884.9;;;;-72
2023/04/13 22:48:27;;;;;;;;;;;;;;;6.05;73.45117;100885.5;;;;-72
2023/04/13 22:53:28;;;;;;;;;;;;;;;6.01;73.39063;100881.7;;;;-72
2023/04/13 22:58:30;;;;;;;;;;;;;;;5.96;73.46875;100881.5;;;;-72
2023/04/13 23:02:12;;;;;;;6.9;1;;;;;;;;;;;;;-71
2023/04/13 23:03:28;;;;;;;;;;;;;;;5.86;73.90332;100884.8;;;;-75
2023/04/13 23:08:28;;;;;;;;;;;;;;;5.86;73.94531;100884.3;;;;-72
2023/04/13 23:13:29;;;;;;;;;;;;;;;5.76;73.76563;100886.2;;;;-72
2023/04/13 23:18:29;;;;;;;;;;;;;;;5.75;74.11328;100897.9;;;;-72
2023/04/13 23:23:28;;;;;;;;;;;;;;;5.72;73.76855;100899.2;;;;-72
2023/04/13 23:28:27;;;;;;;;;;;;;;;5.65;74.40234;100899.8;;;;-73
2023/04/13 23:32:13;;;;;;;4.3;1.1;;;;;;;;;;;;;-72
2023/04/13 23:33:27;;;;;;;;;;;;;;;5.61;74.32031;100899.5;;;;-71
2023/04/13 23:38:27;;;;;;;;;;;;;;;5.57;74.37793;100899.5;;;;-72
2023/04/13 23:43:27;;;;;;;;;;;;;;;5.55;74.375;100902.7;;;;-71
2023/04/13 23:48:27;;;;;;;;;;;;;;;5.46;74.46875;100901.1;;;;-72
2023/04/13 23:53:27;;;;;;;;;;;;;;;5.4;74.68945;100906;;;;-72
2023/04/13 23:58:27;;;;;;;;;;;;;;;5.41;74.63477;100906.6;;;;-72
